Flight Track Log - Related Links

Times and Time Zones

All times are in EDT time to prevent confusion due to time zone crossing. See the N387DS flight status page for this flight to view local times or setup timezone preferences in your user account.

Time Position Orientation Groundspeed Altitude Reporting Facility
EDT Latitude Longitude Course Direction KTS MPH feet Rate Location/Type
Wed 04:48:00 PM 30.5465 -85.7063 20° North  Level FlightAware Approximate
Wed 04:49:00 PM 30.5789 -85.6924 20° North  Level FlightAware Approximate
Wed 04:50:00 PM 30.6115 -85.6790 18° North  Level FlightAware Approximate
Wed 04:51:00 PM 30.6444 -85.6667 18° North  Level FlightAware Approximate
Wed 04:51:20 PM 30.5103 -85.6486 19° North 105 121 5,500  Level Jacksonville Center
Wed 04:52:00 PM 30.6773 -85.6544 18° North  Level FlightAware Approximate
Wed 04:52:21 PM 30.5375 -85.6372 20° North 110 127 5,900  Level Jacksonville Center
Wed 04:53:00 PM 30.7102 -85.6420 18° North  Level FlightAware Approximate
Wed 04:53:22 PM 30.5692 -85.6236 20° North 113 130 6,200  Level Jacksonville Center
Wed 04:54:00 PM 30.7431 -85.6295 19° North  Level FlightAware Approximate
Wed 04:54:23 PM 30.5986 -85.6147 15° North 116 133 6,500  Level Jacksonville Center
Wed 04:55:00 PM 30.7758 -85.6165 19° North  Level FlightAware Approximate
Wed 04:55:24 PM 30.6303 -85.6036 17° North 115 132 6,800  Level Jacksonville Center
Wed 04:56:00 PM 30.8085 -85.6036 19° North  Level FlightAware Approximate
Wed 04:56:24 PM 30.6617 -85.5900 20° North 119 137 7,000  Level Jacksonville Center
Wed 04:57:25 PM 30.6997 -85.5767 17° North 139 160 7,000  Level Jacksonville Center
Wed 04:58:26 PM 30.7397 -85.5633 16° North 147 169 7,000  Level Jacksonville Center
Wed 04:59:27 PM 30.7775 -85.5522 14° North 145 167 7,000  Level Jacksonville Center
Wed 05:00:28 PM 30.8214 -85.5461 North 147 169 7,000  Level Jacksonville Center
Wed 05:01:29 PM 30.8631 -85.5450 North 146 168 7,000  Level Jacksonville Center
Wed 05:02:29 PM 30.8967 -85.5339 16° North 136 157 7,000  Level Jacksonville Center
Wed 05:03:30 PM 30.9386 -85.5325 North 140 161 7,000  Level Jacksonville Center
Wed 05:04:31 PM 30.9744 -85.5192 18° North 141 162 7,000  Level Jacksonville Center
Wed 05:05:32 PM 31.0122 -85.5056 17° North 135 155 7,000  Level Jacksonville Center
Wed 05:06:33 PM 31.0481 -85.4919 18° North 130 150 7,000  Level Jacksonville Center
Wed 05:07:34 PM 31.0794 -85.4808 17° North 122 140 7,000  Level Jacksonville Center
Wed 05:08:34 PM 31.1175 -85.4647 20° North 136 157 7,000  Level Jacksonville Center
Wed 05:09:35 PM 31.1572 -85.4611 North 147 169 7,000  Level Jacksonville Center
Wed 05:10:36 PM 31.1911 -85.4400 28° Northeast 138 159 7,000  Level Jacksonville Center
Wed 05:11:37 PM 31.2269 -85.4217 24° Northeast 135 155 7,000  Level Jacksonville Center
Wed 05:12:38 PM 31.2625 -85.4106 15° North 139 160 7,000  Level Jacksonville Center
Wed 05:13:38 PM 31.3025 -85.3919 22° Northeast 140 161 7,000  Level Jacksonville Center
Wed 05:14:39 PM 31.3406 -85.3783 17° North 138 159 7,000  Level Jacksonville Center
Wed 05:15:40 PM 31.3761 -85.3647 18° North 138 159 7,000  Level Jacksonville Center
Wed 05:16:41 PM 31.4142 -85.3511 17° North 138 159 7,000  Level Jacksonville Center
Wed 05:17:42 PM 31.4478 -85.3350 22° Northeast 141 162 7,000  Level Jacksonville Center
Wed 05:18:42 PM 31.4878 -85.3214 16° North 143 165 7,000  Level Jacksonville Center
Wed 05:19:43 PM 31.5278 -85.3056 19° North 141 162 7,000  Level Jacksonville Center
Wed 05:20:44 PM 31.5633 -85.2917 18° North 140 161 7,000  Level Jacksonville Center
Wed 05:21:45 PM 31.6014 -85.2756 20° North 136 157 7,000  Level Jacksonville Center
Wed 05:22:46 PM 31.6328 -85.2644 17° North 127 146 7,000  Level Jacksonville Center
Wed 05:23:46 PM 31.6686 -85.2506 18° North 129 148 7,000 -281 Level Jacksonville Center
Wed 05:25:37 PM 31.7333 -85.2167 24° Northeast 147 169 6,200 -436 Descending Atlanta TRACON
Wed 05:26:31 PM 31.7667 -85.2167 360° North 130 150 5,800 -474 Descending Atlanta TRACON
Wed 05:27:31 PM 31.8000 -85.2000 23° Northeast 143 165 5,300 -421 Descending Atlanta TRACON
Wed 05:28:25 PM 31.8333 -85.1833 23° Northeast 143 165 5,000 -150 Descending Atlanta TRACON
Wed 05:29:31 PM 31.8833 -85.1667 16° North 140 161 5,000  Level Atlanta TRACON
Wed 05:30:31 PM 31.9167 -85.1500 23° Northeast 138 159 5,000  Level Atlanta TRACON
Wed 05:31:31 PM 31.9500 -85.1333 23° Northeast 139 160 5,000  Level Atlanta TRACON
Wed 05:32:25 PM 31.9833 -85.1167 23° Northeast 138 159 5,000  Level Atlanta TRACON
Wed 05:33:25 PM 32.0167 -85.1167 360° North 133 153 5,000  Level Atlanta TRACON
Wed 05:34:25 PM 32.0667 -85.1000 16° North 133 153 5,000  Level Atlanta TRACON
Wed 05:35:31 PM 32.1000 -85.0833 23° Northeast 132 152 5,000  Level Atlanta TRACON
Wed 05:36:32 PM 32.1333 -85.0833 360° North 130 150 5,000  Level Atlanta TRACON
Wed 05:37:32 PM 32.1667 -85.0667 23° Northeast 127 146 5,000  Level Atlanta TRACON
Wed 05:38:38 PM 32.2167 -85.0667 360° North 130 150 5,000  Level Atlanta TRACON
Wed 05:39:38 PM 32.2500 -85.0667 360° North 126 145 5,000  Level Atlanta TRACON
Wed 05:40:32 PM 32.2667 -85.0500 40° Northeast 134 154 5,000  Level Atlanta TRACON
Wed 05:41:32 PM 32.3167 -85.0500 360° North 134 154 5,000  Level Atlanta TRACON
Wed 05:42:32 PM 32.3500 -85.0333 23° Northeast 130 150 5,000  Level Atlanta TRACON
Wed 05:43:32 PM 32.3833 -85.0167 23° Northeast 131 151 5,000  Level Atlanta TRACON
Wed 05:44:32 PM 32.4167 -85.0167 360° North 136 157 5,000  Level Atlanta TRACON
Wed 05:45:32 PM 32.4500 -85.0000 23° Northeast 131 151 5,000  Level Atlanta TRACON
Wed 05:46:32 PM 32.4833 -84.9833 23° Northeast 125 144 5,000  Level Atlanta TRACON
Wed 05:47:38 PM 32.5167 -84.9667 23° Northeast 143 165 5,000  Level Atlanta TRACON
Wed 05:48:32 PM 32.5500 -84.9500 23° Northeast 138 159 5,000  Level Atlanta TRACON
Wed 05:49:32 PM 32.5833 -84.9333 23° Northeast 125 144 5,000  Level Atlanta TRACON
Wed 05:50:32 PM 32.6167 -84.9167 23° Northeast 130 150 5,000  Level Atlanta TRACON
Wed 05:51:32 PM 32.6500 -84.9000 23° Northeast 132 152 5,000  Level Atlanta TRACON
Wed 05:52:38 PM 32.6833 -84.8833 23° Northeast 133 153 5,000  Level Atlanta TRACON
Wed 05:53:38 PM 32.7167 -84.8667 23° Northeast 132 152 5,000  Level Atlanta TRACON
Wed 05:54:38 PM 32.7667 -84.8500 16° North 130 150 5,000  Level Atlanta TRACON
Wed 05:55:38 PM 32.8000 -84.8333 23° Northeast 133 153 5,000  Level Atlanta TRACON
Wed 05:56:32 PM 32.8167 -84.8167 40° Northeast 131 151 5,000  Level Atlanta TRACON
Wed 05:57:32 PM 32.8667 -84.8000 16° North 135 155 5,000  Level Atlanta TRACON
Wed 05:58:38 PM 32.9000 -84.7833 23° Northeast 133 153 5,000  Level Atlanta TRACON
Wed 05:59:39 PM 32.9333 -84.7667 23° Northeast 132 152 5,000  Level Atlanta TRACON
Wed 06:00:39 PM 32.9667 -84.7500 23° Northeast 132 152 5,000  Level Atlanta TRACON
Wed 06:01:33 PM 33.0000 -84.7333 23° Northeast 132 152 5,000  Level Atlanta TRACON
Wed 06:02:33 PM 33.0333 -84.7333 360° North 131 151 5,000  Level Atlanta TRACON
Wed 06:03:33 PM 33.0667 -84.7167 23° Northeast 134 154 5,000 -143 Level Atlanta TRACON
Wed 06:04:39 PM 33.1000 -84.6833 40° Northeast 139 160 4,700 -350 Descending Atlanta TRACON
Wed 06:05:33 PM 33.1333 -84.6833 360° North 139 160 4,300 -474 Descending Atlanta TRACON
Wed 06:06:33 PM 33.1667 -84.6667 23° Northeast 136 157 3,800 -500 Descending Atlanta TRACON
Wed 06:07:33 PM 33.2000 -84.6500 23° Northeast 131 151 3,300 -397 Descending Atlanta TRACON
Wed 06:08:34 PM 33.2333 -84.6333 23° Northeast 133 153 3,000 -417 Descending Atlanta TRACON
Wed 06:09:28 PM 33.2667 -84.6167 23° Northeast 142 163 2,500 -500 Descending Atlanta TRACON
Wed 06:10:34 PM 33.3000 -84.5833 40° Northeast 129 148 2,000 -240 Descending Atlanta TRACON
Wed 06:11:33 PM 33.3167 -84.5500 59° Northeast 108 124 2,000 -100 Level Atlanta TRACON
Wed 06:12:34 PM 33.3333 -84.5333 40° Northeast 137 158 1,800 -197 Descending Atlanta TRACON

Login

Don't have an account? Register now (free) for customized features, flight alerts, and more!